createdAt,value
2023-07-20T00:03:11.318Z,63.47
2023-07-20T00:06:13.021Z,63.47
2023-07-20T00:09:14.735Z,63.56
2023-07-20T00:12:16.452Z,63.67
2023-07-20T00:15:19.510Z,64.14
2023-07-20T00:18:21.017Z,64.46
2023-07-20T00:21:22.732Z,65.40
2023-07-20T00:24:24.714Z,64.87
2023-07-20T00:27:26.386Z,64.94
2023-07-20T00:30:29.482Z,64.50
2023-07-20T00:33:31.208Z,64.84
2023-07-20T00:36:33.012Z,64.64
2023-07-20T00:39:34.719Z,64.27
2023-07-20T00:42:36.638Z,64.45
2023-07-20T00:45:39.987Z,64.78
2023-07-20T00:48:42.750Z,64.08
2023-07-20T00:51:45.250Z,64.63
2023-07-20T00:54:47.966Z,64.99
2023-07-20T00:57:49.813Z,65.40
2023-07-20T01:00:52.900Z,64.87
2023-07-20T01:03:54.425Z,65.59
2023-07-20T01:07:01.982Z,65.78
2023-07-20T01:10:10.989Z,65.78
2023-07-20T01:13:15.708Z,65.72
2023-07-20T01:16:18.746Z,65.79
2023-07-20T01:19:20.313Z,66.35
2023-07-20T01:22:42.112Z,65.96
2023-07-20T01:26:00.857Z,65.77
2023-07-20T01:29:18.603Z,66.96
2023-07-20T01:32:25.400Z,67.00
2023-07-20T01:35:30.242Z,66.63
2023-07-20T01:38:32.086Z,66.80
2023-07-20T01:41:34.909Z,66.52
2023-07-20T01:44:37.836Z,66.63
2023-07-20T01:47:41.335Z,66.88
2023-07-20T01:50:43.100Z,67.40
2023-07-20T01:53:44.834Z,67.28
2023-07-20T01:56:46.527Z,67.62
2023-07-20T01:59:48.234Z,67.30
2023-07-20T02:02:51.689Z,67.33
2023-07-20T02:08:57.542Z,68.04
2023-07-20T02:11:59.210Z,68.03
2023-07-20T02:15:00.877Z,67.65
2023-07-20T02:18:04.150Z,67.60
2023-07-20T02:21:05.857Z,68.04
2023-07-20T02:24:07.561Z,68.41
2023-07-20T02:27:09.288Z,68.46
2023-07-20T02:30:11.406Z,68.56
2023-07-20T02:33:14.431Z,68.15
2023-07-20T02:36:16.093Z,68.56
2023-07-20T02:39:17.735Z,68.17
2023-07-20T02:42:19.366Z,68.76
2023-07-20T02:45:21.037Z,69.24
2023-07-20T02:48:24.138Z,69.40
2023-07-20T02:51:25.618Z,68.87
2023-07-20T02:54:27.276Z,68.54
2023-07-20T02:57:28.969Z,68.92
2023-07-20T03:00:30.632Z,69.32
2023-07-20T03:03:33.694Z,69.58
2023-07-20T03:06:35.422Z,69.44
2023-07-20T03:09:37.354Z,69.24
2023-07-20T03:12:39.006Z,69.70
2023-07-20T03:15:40.780Z,69.50
2023-07-20T03:18:43.824Z,69.33
2023-07-20T03:21:45.346Z,69.21
2023-07-20T03:24:47.224Z,69.45
2023-07-20T03:27:48.902Z,69.23
2023-07-20T03:30:54.441Z,69.43
2023-07-20T03:33:57.493Z,69.11
2023-07-20T03:36:59.171Z,69.35
2023-07-20T03:40:00.836Z,69.66
2023-07-20T03:43:02.529Z,69.45
2023-07-20T03:46:04.285Z,69.65
2023-07-20T03:49:07.358Z,69.28
2023-07-20T03:52:09.080Z,69.12
2023-07-20T03:55:11.290Z,69.40
2023-07-20T03:58:13.073Z,69.65
2023-07-20T04:01:14.798Z,69.62
2023-07-20T04:04:17.847Z,69.72
2023-07-20T04:07:19.480Z,70.55
2023-07-20T04:10:21.160Z,70.44
2023-07-20T04:13:23.049Z,70.20
2023-07-20T04:16:25.131Z,69.75
2023-07-20T04:19:28.524Z,70.55
2023-07-20T04:22:29.979Z,70.32
2023-07-20T04:25:31.439Z,70.48
2023-07-20T04:28:32.922Z,70.91
2023-07-20T04:31:34.683Z,70.54
2023-07-20T04:34:37.714Z,71.24
2023-07-20T04:37:39.371Z,70.61
2023-07-20T04:40:41.226Z,70.38
2023-07-20T04:43:42.868Z,70.21
2023-07-20T04:46:46.254Z,69.84
2023-07-20T04:49:50.461Z,69.84
2023-07-20T04:52:53.316Z,69.82
2023-07-20T04:55:55.050Z,70.21
2023-07-20T04:58:56.819Z,69.89
2023-07-20T05:01:58.592Z,69.67
2023-07-20T05:05:01.731Z,70.02
2023-07-20T05:08:04.650Z,69.80
2023-07-20T05:11:06.367Z,69.67
2023-07-20T05:14:08.053Z,69.08
2023-07-20T05:17:09.762Z,68.77
2023-07-20T05:20:13.010Z,68.49
2023-07-20T05:23:14.840Z,68.00
2023-07-20T05:26:16.603Z,68.49
2023-07-20T05:29:18.257Z,67.57
2023-07-20T05:32:19.914Z,67.89
2023-07-20T05:35:23.005Z,67.80
2023-07-20T05:38:24.528Z,67.40
2023-07-20T05:41:26.306Z,67.38
2023-07-20T05:44:27.994Z,66.80
2023-07-20T05:47:29.708Z,66.87
2023-07-20T05:50:32.774Z,66.86
2023-07-20T05:53:34.266Z,66.50
2023-07-20T05:56:35.949Z,64.44
2023-07-20T05:59:37.823Z,64.34
2023-07-20T06:02:39.650Z,63.49
2023-07-20T06:05:42.851Z,62.85
2023-07-20T06:08:44.623Z,63.34
2023-07-20T06:11:46.354Z,62.41
2023-07-20T06:14:48.150Z,61.04
2023-07-20T06:17:49.887Z,62.13
2023-07-20T06:20:53.344Z,61.65
2023-07-20T06:23:55.163Z,62.06
2023-07-20T06:26:57.015Z,61.44
2023-07-20T06:29:58.858Z,62.04
2023-07-20T06:33:00.545Z,61.71
2023-07-20T06:36:04.239Z,59.40
2023-07-20T06:42:10.553Z,58.46
2023-07-20T06:45:12.282Z,57.93
2023-07-20T06:48:13.937Z,58.06
2023-07-20T06:51:16.975Z,56.43
2023-07-20T06:54:23.743Z,54.55
2023-07-20T06:57:26.239Z,54.41
2023-07-20T07:00:28.019Z,53.04
2023-07-20T07:03:29.894Z,52.72
2023-07-20T07:06:33.104Z,52.49
2023-07-20T07:09:34.792Z,51.16
2023-07-20T07:12:36.459Z,49.05
2023-07-20T07:15:39.268Z,49.35
2023-07-20T07:18:40.950Z,48.39
2023-07-20T07:21:43.959Z,46.71
2023-07-20T07:24:45.724Z,45.42
2023-07-20T07:27:47.416Z,43.49
2023-07-20T07:30:49.160Z,43.48
2023-07-20T07:33:50.884Z,43.62
2023-07-20T07:36:53.954Z,44.03
2023-07-20T07:39:55.629Z,44.02
2023-07-20T07:42:57.285Z,42.97
2023-07-20T07:45:58.964Z,42.45
2023-07-20T07:49:00.685Z,42.74
2023-07-20T07:52:04.280Z,42.99
2023-07-20T07:55:07.047Z,41.63
2023-07-20T07:58:08.725Z,41.50
2023-07-20T08:01:10.465Z,42.36
2023-07-20T08:04:12.244Z,41.13
2023-07-20T08:07:15.938Z,40.70
2023-07-20T08:10:17.664Z,39.97
2023-07-20T08:13:19.370Z,40.66
2023-07-20T08:16:21.187Z,39.69
2023-07-20T08:19:23.113Z,38.08
2023-07-20T08:22:26.237Z,37.05
2023-07-20T08:25:27.892Z,36.14
2023-07-20T08:28:29.593Z,35.96
2023-07-20T08:31:31.264Z,36.25
2023-07-20T08:34:32.959Z,36.09
2023-07-20T08:37:36.015Z,36.01
2023-07-20T08:40:42.895Z,35.50
2023-07-20T08:43:47.220Z,36.10
2023-07-20T08:46:49.930Z,35.47
2023-07-20T08:49:51.835Z,36.24
2023-07-20T08:52:55.826Z,35.92
2023-07-20T08:55:57.918Z,35.87
2023-07-20T08:59:00.285Z,35.50
2023-07-20T09:02:03.326Z,35.89
2023-07-20T09:05:05.810Z,35.78
2023-07-20T09:08:08.850Z,35.08
2023-07-20T09:11:13.624Z,34.87
2023-07-20T09:14:15.356Z,34.95
2023-07-20T09:17:18.317Z,34.89
2023-07-20T09:20:23.299Z,34.15
2023-07-20T09:23:32.571Z,33.40
2023-07-20T09:26:42.319Z,33.73
2023-07-20T09:29:54.121Z,33.57
2023-07-20T09:32:56.091Z,33.14
2023-07-20T09:39:09.301Z,32.95
2023-07-20T09:45:17.305Z,32.82
2023-07-20T09:51:24.488Z,33.27
2023-07-20T09:54:28.220Z,32.46
2023-07-20T09:57:30.585Z,32.37
2023-07-20T10:03:39.185Z,32.58
2023-07-20T10:06:43.500Z,32.20
2023-07-20T10:09:47.063Z,32.06
2023-07-20T10:12:49.932Z,32.19
2023-07-20T10:15:53.718Z,32.58
2023-07-20T10:19:02.892Z,32.13
2023-07-20T10:22:13.092Z,32.18
2023-07-20T10:25:17.475Z,31.89
2023-07-20T10:28:19.254Z,32.10
2023-07-20T10:31:21.271Z,31.49
2023-07-20T10:34:23.677Z,32.23
2023-07-20T10:37:51.285Z,31.60
2023-07-20T10:40:57.651Z,30.94
2023-07-20T10:44:01.494Z,30.48
2023-07-20T10:47:05.355Z,30.59
2023-07-20T10:50:08.052Z,30.52
2023-07-20T10:53:15.048Z,30.64
2023-07-20T10:56:22.560Z,30.61
2023-07-20T10:59:42.937Z,30.63
2023-07-20T11:02:50.693Z,30.95
2023-07-20T11:05:53.336Z,31.13
2023-07-20T11:08:57.184Z,31.05
2023-07-20T11:12:12.336Z,30.03
2023-07-20T11:15:15.985Z,30.27
2023-07-20T11:18:17.853Z,30.77
2023-07-20T11:21:19.642Z,31.19
2023-07-20T11:24:21.965Z,30.89
2023-07-20T11:27:25.044Z,31.04
2023-07-20T11:30:26.804Z,31.10
2023-07-20T11:33:28.530Z,30.52
2023-07-20T11:39:35.074Z,29.76
2023-07-20T11:45:42.951Z,30.01
2023-07-20T11:48:44.604Z,31.38
2023-07-20T11:51:46.573Z,30.57
2023-07-20T11:54:49.666Z,30.58
2023-07-20T11:58:11.108Z,31.39
2023-07-20T12:01:13.689Z,29.33
2023-07-20T12:04:15.640Z,28.79
2023-07-20T12:07:17.377Z,29.45
2023-07-20T12:10:25.686Z,29.73
2023-07-20T12:13:38.363Z,29.57
2023-07-20T12:16:40.546Z,29.23
2023-07-20T12:19:42.234Z,27.90
2023-07-20T12:22:44.814Z,26.66
2023-07-20T12:25:47.395Z,27.89
2023-07-20T12:28:50.760Z,27.65
2023-07-20T12:31:52.429Z,27.55
2023-07-20T12:34:54.099Z,28.18
2023-07-20T12:37:55.784Z,28.16
2023-07-20T12:40:57.591Z,29.02
2023-07-20T12:44:00.567Z,27.16
2023-07-20T12:47:02.303Z,27.49
2023-07-20T12:50:04.552Z,28.32
2023-07-20T12:53:06.481Z,27.85
2023-07-20T12:59:14.201Z,27.95
2023-07-20T13:02:15.898Z,28.02
2023-07-20T13:05:18.323Z,28.63
2023-07-20T13:08:20.544Z,28.17
2023-07-20T13:11:22.601Z,28.12
2023-07-20T13:14:25.766Z,27.93
2023-07-20T13:17:27.688Z,28.06
2023-07-20T13:20:29.392Z,27.82
2023-07-20T13:23:31.164Z,27.80
2023-07-20T13:26:32.845Z,26.89
2023-07-20T13:29:35.893Z,25.36
2023-07-20T13:32:37.754Z,26.07
2023-07-20T13:38:44.192Z,25.48
2023-07-20T13:41:46.756Z,25.13
2023-07-20T13:44:49.882Z,25.28
2023-07-20T13:47:51.938Z,25.72
2023-07-20T13:54:26.686Z,25.92
2023-07-20T13:57:22.125Z,25.47
2023-07-20T14:00:28.318Z,25.79
2023-07-20T14:03:30.324Z,25.83
2023-07-20T14:06:33.646Z,26.01
2023-07-20T14:09:35.406Z,26.29
2023-07-20T14:12:37.083Z,26.59
2023-07-20T14:15:40.361Z,26.13
2023-07-20T14:18:42.288Z,25.75
2023-07-20T14:21:44.080Z,25.61
2023-07-20T14:24:45.808Z,25.44
2023-07-20T14:27:47.732Z,25.47
2023-07-20T14:30:52.379Z,25.79
2023-07-20T14:33:54.065Z,26.01
2023-07-20T14:40:15.491Z,25.27
2023-07-20T14:43:17.394Z,25.92
2023-07-20T14:46:21.688Z,25.22
2023-07-20T14:49:23.764Z,24.27
2023-07-20T14:52:29.421Z,24.23
2023-07-20T14:55:31.283Z,24.48
2023-07-20T14:58:34.873Z,24.77
2023-07-20T15:01:38.947Z,24.64
2023-07-20T15:04:47.010Z,25.00
2023-07-20T15:07:48.974Z,20.30
2023-07-20T15:10:50.673Z,14.08
2023-07-20T15:13:52.370Z,12.93
2023-07-20T15:16:55.451Z,12.09
2023-07-20T15:19:57.166Z,11.79
2023-07-20T15:22:58.889Z,11.57
2023-07-20T15:26:00.559Z,11.78
2023-07-20T15:29:02.205Z,12.83
2023-07-20T15:32:06.374Z,14.10
2023-07-20T15:35:09.098Z,15.85
2023-07-20T15:38:10.559Z,18.38
2023-07-20T15:41:12.267Z,20.01
2023-07-20T15:44:14.134Z,20.80
2023-07-20T15:47:17.267Z,21.69
2023-07-20T15:50:22.440Z,22.05
2023-07-20T15:53:24.336Z,23.17
2023-07-20T15:56:26.223Z,23.34
2023-07-20T15:59:28.013Z,23.04
2023-07-20T16:02:32.096Z,23.44
2023-07-20T16:05:33.968Z,23.89
2023-07-20T16:08:35.716Z,24.01
2023-07-20T16:11:38.334Z,23.88
2023-07-20T16:17:46.489Z,23.93
2023-07-20T16:20:48.386Z,24.04
2023-07-20T16:23:50.782Z,24.54
2023-07-20T16:26:52.436Z,24.28
2023-07-20T16:29:54.160Z,24.53
2023-07-20T16:32:57.578Z,24.90
2023-07-20T16:35:59.307Z,24.55
2023-07-20T16:42:07.167Z,25.32
2023-07-20T16:45:09.967Z,25.48
2023-07-20T16:48:14.525Z,25.68
2023-07-20T16:51:17.381Z,25.56
2023-07-20T16:54:19.096Z,25.37
2023-07-20T16:57:22.026Z,25.82
2023-07-20T17:00:23.718Z,26.20
2023-07-20T17:03:26.919Z,26.40
2023-07-20T17:06:34.614Z,26.52
2023-07-20T17:09:36.407Z,26.99
2023-07-20T17:12:39.321Z,27.01
2023-07-20T17:15:41.172Z,27.52
2023-07-20T17:18:44.302Z,27.28
2023-07-20T17:21:45.971Z,27.74
2023-07-20T17:30:58.722Z,27.82
2023-07-20T17:34:03.110Z,28.19
2023-07-20T17:43:15.460Z,28.11
2023-07-20T17:49:24.509Z,28.07
2023-07-20T17:52:26.308Z,28.32
2023-07-20T17:55:28.542Z,28.60
2023-07-20T17:58:30.951Z,28.55
2023-07-20T18:01:33.676Z,29.04
2023-07-20T18:04:36.805Z,28.93
2023-07-20T18:07:38.930Z,29.45
2023-07-20T18:10:41.104Z,29.63
2023-07-20T18:13:43.681Z,29.34
2023-07-20T18:16:45.424Z,29.81
2023-07-20T18:19:50.795Z,29.90
2023-07-20T18:22:53.000Z,29.94
2023-07-20T18:25:55.722Z,30.12
2023-07-20T18:28:57.884Z,30.51
2023-07-20T18:32:00.576Z,30.33
2023-07-20T18:35:04.200Z,30.54
2023-07-20T18:38:05.983Z,30.63
2023-07-20T18:41:08.204Z,30.88
2023-07-20T18:44:10.290Z,31.24
2023-07-20T18:47:12.654Z,30.99
2023-07-20T18:50:16.343Z,31.50
2023-07-20T18:53:18.885Z,32.20
2023-07-20T18:56:20.586Z,32.00
2023-07-20T18:59:22.770Z,32.95
2023-07-20T19:02:25.696Z,32.53
2023-07-20T19:05:29.735Z,33.02
2023-07-20T19:08:31.466Z,33.08
2023-07-20T19:14:38.268Z,32.53
2023-07-20T19:17:40.899Z,34.35
2023-07-20T19:20:44.522Z,34.38
2023-07-20T19:23:46.249Z,35.20
2023-07-20T19:26:47.972Z,35.43
2023-07-20T19:29:50.850Z,36.28
2023-07-20T19:32:52.980Z,35.99
2023-07-20T19:35:57.160Z,36.80
2023-07-20T19:39:00.931Z,37.23
2023-07-20T19:42:06.887Z,37.80
2023-07-20T19:45:09.658Z,37.17
2023-07-20T19:48:12.063Z,38.05
2023-07-20T19:51:15.265Z,37.81
2023-07-20T20:09:51.655Z,39.17
2023-07-20T20:12:54.447Z,39.30
2023-07-20T20:15:56.661Z,39.22
2023-07-20T20:18:58.905Z,40.14
2023-07-20T20:22:02.658Z,40.10
2023-07-20T20:25:07.224Z,40.54
2023-07-20T20:28:09.470Z,40.44
2023-07-20T20:31:12.046Z,40.37
2023-07-20T20:34:14.337Z,40.94
2023-07-20T20:37:17.027Z,41.64
2023-07-20T20:40:21.607Z,41.55
2023-07-20T20:43:23.864Z,42.31
2023-07-20T20:46:26.464Z,42.72
2023-07-20T20:49:29.436Z,43.32
2023-07-20T20:52:31.128Z,43.41
2023-07-20T20:55:34.774Z,43.82
2023-07-20T20:58:36.454Z,44.05
2023-07-20T21:01:38.166Z,44.96
2023-07-20T21:04:40.122Z,45.41
2023-07-20T21:07:41.847Z,45.58
2023-07-20T21:10:46.795Z,46.13
2023-07-20T21:13:49.886Z,43.97
2023-07-20T21:16:51.654Z,43.13
2023-07-20T21:19:53.340Z,41.64
2023-07-20T21:22:55.137Z,40.82
2023-07-20T21:25:58.167Z,40.71
2023-07-20T21:28:59.669Z,40.47
2023-07-20T21:32:01.317Z,40.09
2023-07-20T21:35:03.025Z,39.66
2023-07-20T21:38:04.659Z,40.21
2023-07-20T21:41:07.962Z,39.45
2023-07-20T21:44:09.581Z,39.61
2023-07-20T21:47:11.215Z,39.33
2023-07-20T21:50:12.896Z,39.15
2023-07-20T21:53:14.551Z,39.08
2023-07-20T21:56:17.640Z,38.52
2023-07-20T21:59:19.275Z,38.82
2023-07-20T22:02:20.982Z,39.36
2023-07-20T22:05:22.899Z,39.67
2023-07-20T22:08:24.724Z,38.86
2023-07-20T22:11:27.749Z,39.66
2023-07-20T22:14:29.417Z,40.70
2023-07-20T22:17:31.119Z,39.86
2023-07-20T22:20:32.859Z,40.79
2023-07-20T22:23:35.108Z,41.19
2023-07-20T22:26:38.198Z,40.94
2023-07-20T22:29:39.664Z,42.07
2023-07-20T22:32:42.837Z,41.66
2023-07-20T22:35:44.579Z,41.86
2023-07-20T22:38:46.291Z,42.50
2023-07-20T22:41:49.276Z,42.76
2023-07-20T22:44:55.209Z,42.78
2023-07-20T22:47:56.885Z,43.26
2023-07-20T22:50:58.584Z,43.25
2023-07-20T22:54:00.304Z,43.63
2023-07-20T22:57:03.426Z,43.76
2023-07-20T23:00:05.485Z,43.60
2023-07-20T23:03:07.399Z,43.31
2023-07-20T23:06:09.214Z,43.58
2023-07-20T23:09:10.901Z,42.52
2023-07-20T23:12:13.964Z,42.47
2023-07-20T23:15:15.521Z,42.61
2023-07-20T23:18:17.243Z,42.81
2023-07-20T23:21:18.861Z,43.28
2023-07-20T23:24:20.599Z,43.03
2023-07-20T23:27:23.662Z,43.00
2023-07-20T23:30:25.191Z,43.43
2023-07-20T23:33:26.848Z,44.53
2023-07-20T23:36:28.919Z,44.42
2023-07-20T23:39:30.752Z,44.17
2023-07-20T23:42:33.786Z,45.08
2023-07-20T23:45:35.514Z,45.37
2023-07-20T23:48:37.905Z,45.61
2023-07-20T23:51:39.589Z,45.14
2023-07-20T23:54:41.506Z,45.41
2023-07-20T23:57:44.881Z,45.92
